createdAt,value
2023-05-07T00:00:44.282Z,100.00
2023-05-07T00:01:41.028Z,100.00
2023-05-07T00:02:39.027Z,100.00
2023-05-07T00:03:35.973Z,100.00
2023-05-07T00:04:37.713Z,100.00
2023-05-07T00:05:34.929Z,100.00
2023-05-07T00:06:33.311Z,100.00
2023-05-07T00:07:30.537Z,100.00
2023-05-07T00:08:27.343Z,100.00
2023-05-07T00:09:24.305Z,100.00
2023-05-07T00:10:21.094Z,100.00
2023-05-07T00:11:17.771Z,100.00
2023-05-07T00:12:14.802Z,100.00
2023-05-07T00:13:11.723Z,100.00
2023-05-07T00:14:08.614Z,100.00
2023-05-07T00:15:06.619Z,100.00
2023-05-07T00:16:04.776Z,100.00
2023-05-07T00:17:01.773Z,100.00
2023-05-07T00:18:00.537Z,100.00
2023-05-07T00:18:57.399Z,100.00
2023-05-07T00:19:54.152Z,100.00
2023-05-07T00:20:50.984Z,100.00
2023-05-07T00:21:47.985Z,100.00
2023-05-07T00:22:44.809Z,100.00
2023-05-07T00:23:41.602Z,100.00
2023-05-07T00:24:38.332Z,100.00
2023-05-07T00:25:35.098Z,100.00
2023-05-07T00:26:31.888Z,100.00
2023-05-07T00:27:28.683Z,100.00
2023-05-07T00:28:25.462Z,100.00
2023-05-07T00:29:22.259Z,100.00
2023-05-07T00:30:19.216Z,100.00
2023-05-07T00:31:16.061Z,100.00
2023-05-07T00:32:12.931Z,100.00
2023-05-07T00:33:09.805Z,100.00
2023-05-07T00:34:07.022Z,100.00
2023-05-07T00:35:04.809Z,100.00
2023-05-07T00:36:03.036Z,100.00
2023-05-07T00:36:59.780Z,100.00
2023-05-07T00:37:56.761Z,100.00
2023-05-07T00:38:55.839Z,100.00
2023-05-07T00:39:52.609Z,100.00
2023-05-07T00:40:49.317Z,100.00
2023-05-07T00:41:47.017Z,100.00
2023-05-07T00:42:48.121Z,100.00
2023-05-07T00:43:45.356Z,100.00
2023-05-07T00:44:42.447Z,100.00
2023-05-07T00:45:39.964Z,100.00
2023-05-07T00:46:37.027Z,100.00
2023-05-07T00:47:33.888Z,100.00
2023-05-07T00:48:31.844Z,100.00
2023-05-07T00:49:42.465Z,100.00
2023-05-07T00:50:39.356Z,100.00
2023-05-07T00:51:36.308Z,100.00
2023-05-07T00:52:33.245Z,100.00
2023-05-07T00:53:31.438Z,100.00
2023-05-07T00:54:28.254Z,100.00
2023-05-07T00:55:25.737Z,100.00
2023-05-07T00:56:23.575Z,100.00
2023-05-07T00:57:22.539Z,100.00
2023-05-07T00:58:19.870Z,100.00
2023-05-07T00:59:16.763Z,100.00
2023-05-07T01:00:14.694Z,100.00
2023-05-07T01:01:11.901Z,100.00
2023-05-07T01:02:08.836Z,100.00
2023-05-07T01:03:06.505Z,100.00
2023-05-07T01:04:03.976Z,100.00
2023-05-07T01:05:02.367Z,100.00
2023-05-07T01:06:01.882Z,100.00
2023-05-07T01:07:02.222Z,100.00
2023-05-07T01:08:01.559Z,100.00
2023-05-07T01:08:59.291Z,100.00
2023-05-07T01:09:56.301Z,100.00
2023-05-07T01:10:54.547Z,100.00
2023-05-07T01:11:52.806Z,100.00
2023-05-07T01:12:51.407Z,100.00
2023-05-07T01:13:51.468Z,100.00
2023-05-07T01:14:49.884Z,100.00
2023-05-07T01:15:46.614Z,100.00
2023-05-07T01:16:43.667Z,100.00
2023-05-07T01:17:42.842Z,100.00
2023-05-07T01:18:39.838Z,100.00
2023-05-07T01:19:37.255Z,100.00
2023-05-07T01:20:34.287Z,100.00
2023-05-07T01:21:35.854Z,100.00
2023-05-07T01:22:37.942Z,100.00
2023-05-07T01:23:36.669Z,100.00
2023-05-07T01:24:34.800Z,100.00
2023-05-07T01:25:32.065Z,100.00
2023-05-07T01:26:28.898Z,100.00
2023-05-07T01:27:25.641Z,100.00
2023-05-07T01:28:22.394Z,100.00
2023-05-07T01:29:19.101Z,100.00
2023-05-07T01:30:19.145Z,100.00
2023-05-07T01:31:18.967Z,100.00
2023-05-07T01:32:22.710Z,100.00
2023-05-07T01:33:25.253Z,100.00
2023-05-07T01:34:24.837Z,100.00
2023-05-07T01:35:30.045Z,100.00
2023-05-07T01:36:30.061Z,100.00
2023-05-07T01:37:27.529Z,100.00
2023-05-07T01:38:25.370Z,100.00
2023-05-07T01:39:25.405Z,100.00
2023-05-07T01:40:22.805Z,100.00
2023-05-07T01:41:20.836Z,100.00
2023-05-07T01:42:17.700Z,100.00
2023-05-07T01:43:14.820Z,100.00
2023-05-07T01:44:14.750Z,100.00
2023-05-07T01:45:12.396Z,100.00
2023-05-07T01:46:11.224Z,100.00
2023-05-07T01:47:09.573Z,100.00
2023-05-07T01:48:08.636Z,100.00
2023-05-07T01:49:05.767Z,100.00
2023-05-07T01:50:02.520Z,100.00
2023-05-07T01:51:00.173Z,100.00
2023-05-07T01:51:57.034Z,100.00
2023-05-07T01:52:53.900Z,100.00
2023-05-07T01:53:51.881Z,100.00
2023-05-07T01:54:48.636Z,100.00
2023-05-07T01:55:47.983Z,100.00
2023-05-07T01:56:44.837Z,100.00
2023-05-07T01:57:42.064Z,100.00
2023-05-07T01:58:38.926Z,100.00
2023-05-07T01:59:35.906Z,100.00
2023-05-07T02:00:33.073Z,100.00
2023-05-07T02:01:30.043Z,100.00
2023-05-07T02:02:26.969Z,100.00
2023-05-07T02:03:23.986Z,100.00
2023-05-07T02:04:20.940Z,100.00
2023-05-07T02:05:17.703Z,100.00
2023-05-07T02:06:14.452Z,100.00
2023-05-07T02:07:11.218Z,100.00
2023-05-07T02:08:08.131Z,100.00
2023-05-07T02:09:04.934Z,100.00
2023-05-07T02:10:01.664Z,100.00
2023-05-07T02:10:58.407Z,100.00
2023-05-07T02:11:55.107Z,100.00
2023-05-07T02:12:51.842Z,100.00
2023-05-07T02:13:48.569Z,100.00
2023-05-07T02:14:45.268Z,100.00
2023-05-07T02:15:41.992Z,100.00
2023-05-07T02:16:38.751Z,100.00
2023-05-07T02:17:36.371Z,100.00
2023-05-07T02:18:33.135Z,100.00
2023-05-07T02:19:29.953Z,100.00
2023-05-07T02:20:27.035Z,100.00
2023-05-07T02:21:23.752Z,100.00
2023-05-07T02:22:20.542Z,100.00
2023-05-07T02:23:17.329Z,100.00
2023-05-07T02:24:14.096Z,100.00
2023-05-07T02:25:10.865Z,100.00
2023-05-07T02:26:07.696Z,100.00
2023-05-07T02:27:04.452Z,100.00
2023-05-07T02:28:01.284Z,100.00
2023-05-07T02:28:58.030Z,100.00
2023-05-07T02:29:54.760Z,100.00
2023-05-07T02:30:51.658Z,100.00
2023-05-07T02:31:51.927Z,100.00
2023-05-07T02:32:48.800Z,100.00
2023-05-07T02:33:46.544Z,100.00
2023-05-07T02:34:43.342Z,100.00
2023-05-07T02:35:40.128Z,100.00
2023-05-07T02:36:36.990Z,100.00
2023-05-07T02:37:33.843Z,100.00
2023-05-07T02:38:30.631Z,100.00
2023-05-07T02:39:27.495Z,100.00
2023-05-07T02:40:24.362Z,100.00
2023-05-07T02:41:21.607Z,100.00
2023-05-07T02:42:18.443Z,100.00
2023-05-07T02:43:15.355Z,100.00
2023-05-07T02:44:12.217Z,100.00
2023-05-07T02:45:09.689Z,100.00
2023-05-07T02:46:08.872Z,100.00
2023-05-07T02:47:06.012Z,100.00
2023-05-07T02:48:02.913Z,100.00
2023-05-07T02:48:59.753Z,100.00
2023-05-07T02:49:56.568Z,100.00
2023-05-07T02:50:53.291Z,100.00
2023-05-07T02:51:50.154Z,100.00
2023-05-07T02:52:47.872Z,100.00
2023-05-07T02:53:44.584Z,100.00
2023-05-07T02:54:41.446Z,100.00
2023-05-07T02:55:38.205Z,100.00
2023-05-07T02:56:35.002Z,100.00
2023-05-07T02:57:31.798Z,100.00
2023-05-07T02:58:28.906Z,100.00
2023-05-07T02:59:27.291Z,100.00
2023-05-07T03:00:24.940Z,100.00
2023-05-07T03:01:22.095Z,100.00
2023-05-07T03:02:18.947Z,100.00
2023-05-07T03:03:16.135Z,100.00
2023-05-07T03:04:12.922Z,100.00
2023-05-07T03:05:10.178Z,100.00
2023-05-07T03:06:07.776Z,100.00
2023-05-07T03:07:04.605Z,100.00
2023-05-07T03:08:01.338Z,100.00
2023-05-07T03:08:58.146Z,100.00
2023-05-07T03:09:54.930Z,100.00
2023-05-07T03:10:51.831Z,100.00
2023-05-07T03:11:48.767Z,100.00
2023-05-07T03:12:45.770Z,100.00
2023-05-07T03:13:42.573Z,100.00
2023-05-07T03:14:39.306Z,100.00
2023-05-07T03:15:36.438Z,100.00
2023-05-07T03:16:33.449Z,100.00
2023-05-07T03:17:30.227Z,100.00
2023-05-07T03:18:27.037Z,100.00
2023-05-07T03:19:23.946Z,100.00
2023-05-07T03:20:20.862Z,100.00
2023-05-07T03:21:17.663Z,100.00
2023-05-07T03:22:15.054Z,100.00
2023-05-07T03:23:11.786Z,100.00
2023-05-07T03:24:08.609Z,100.00
2023-05-07T03:25:05.846Z,100.00
2023-05-07T03:26:02.619Z,100.00
2023-05-07T03:26:59.346Z,100.00
2023-05-07T03:27:56.153Z,100.00
2023-05-07T03:28:53.166Z,100.00
2023-05-07T03:29:50.004Z,100.00
2023-05-07T03:30:46.755Z,100.00
2023-05-07T03:31:43.651Z,100.00
2023-05-07T03:32:40.788Z,100.00
2023-05-07T03:33:50.993Z,100.00
2023-05-07T03:34:47.717Z,100.00
2023-05-07T03:35:44.638Z,100.00
2023-05-07T03:36:41.449Z,100.00
2023-05-07T03:37:39.409Z,100.00
2023-05-07T03:38:36.147Z,100.00
2023-05-07T03:39:33.251Z,100.00
2023-05-07T03:40:30.192Z,100.00
2023-05-07T03:41:27.187Z,100.00
2023-05-07T03:42:24.419Z,100.00
2023-05-07T03:43:21.266Z,100.00
2023-05-07T03:44:18.049Z,100.00
2023-05-07T03:45:14.841Z,100.00
2023-05-07T03:46:11.809Z,100.00
2023-05-07T03:47:08.966Z,100.00
2023-05-07T03:48:05.799Z,100.00
2023-05-07T03:49:02.549Z,100.00
2023-05-07T03:50:00.469Z,100.00
2023-05-07T03:50:59.128Z,100.00
2023-05-07T03:51:56.713Z,100.00
2023-05-07T03:52:53.481Z,100.00
2023-05-07T03:53:50.409Z,100.00
2023-05-07T03:54:47.245Z,100.00
2023-05-07T03:55:43.997Z,100.00
2023-05-07T03:56:41.079Z,100.00
2023-05-07T03:57:37.887Z,100.00
2023-05-07T03:58:34.856Z,100.00
2023-05-07T03:59:31.629Z,100.00
2023-05-07T04:00:28.548Z,100.00
2023-05-07T04:01:25.415Z,100.00
2023-05-07T04:02:22.167Z,100.00
2023-05-07T04:03:19.085Z,100.00
2023-05-07T04:04:16.877Z,100.00
2023-05-07T04:05:16.333Z,100.00
2023-05-07T04:06:13.299Z,100.00
2023-05-07T04:07:10.843Z,100.00
2023-05-07T04:08:26.391Z,100.00
2023-05-07T04:09:23.149Z,100.00
2023-05-07T04:10:19.863Z,100.00
2023-05-07T04:11:16.602Z,100.00
2023-05-07T04:12:13.374Z,100.00
2023-05-07T04:13:10.213Z,100.00
2023-05-07T04:14:07.474Z,100.00
2023-05-07T04:15:04.708Z,100.00
2023-05-07T04:16:04.342Z,100.00
2023-05-07T04:17:01.149Z,100.00
2023-05-07T04:17:58.000Z,100.00
2023-05-07T04:18:54.786Z,100.00
2023-05-07T04:19:51.609Z,100.00
2023-05-07T04:20:50.383Z,100.00
2023-05-07T04:21:47.241Z,100.00
2023-05-07T04:22:44.224Z,100.00
2023-05-07T04:23:40.972Z,100.00
2023-05-07T04:24:37.753Z,100.00
2023-05-07T04:25:35.033Z,100.00
2023-05-07T04:26:32.635Z,100.00
2023-05-07T04:27:29.432Z,100.00
2023-05-07T04:28:26.827Z,100.00
2023-05-07T04:29:23.739Z,100.00
2023-05-07T04:30:20.732Z,100.00
2023-05-07T04:31:17.788Z,100.00
2023-05-07T04:32:14.891Z,100.00
2023-05-07T04:33:12.665Z,100.00
2023-05-07T04:34:10.143Z,100.00
2023-05-07T04:35:08.068Z,100.00
2023-05-07T04:36:05.426Z,100.00
2023-05-07T04:37:02.643Z,100.00
2023-05-07T04:37:59.529Z,100.00
2023-05-07T04:38:56.340Z,100.00
2023-05-07T04:39:53.243Z,100.00
2023-05-07T04:40:50.238Z,100.00
2023-05-07T04:41:47.184Z,100.00
2023-05-07T04:42:43.992Z,100.00
2023-05-07T04:43:41.217Z,100.00
2023-05-07T04:44:38.319Z,100.00
2023-05-07T04:45:35.123Z,100.00
2023-05-07T04:46:32.006Z,100.00
2023-05-07T04:47:29.091Z,100.00
2023-05-07T04:48:26.084Z,100.00
2023-05-07T04:49:22.823Z,100.00
2023-05-07T04:50:20.923Z,100.00
2023-05-07T04:51:17.810Z,100.00
2023-05-07T04:52:14.635Z,100.00
2023-05-07T04:53:11.451Z,100.00
2023-05-07T04:54:08.256Z,100.00
2023-05-07T04:55:05.598Z,100.00
2023-05-07T04:56:02.388Z,100.00
2023-05-07T04:56:59.202Z,100.00
2023-05-07T04:57:56.035Z,100.00
2023-05-07T04:58:52.835Z,100.00
2023-05-07T04:59:49.552Z,100.00
2023-05-07T05:00:46.351Z,100.00
2023-05-07T05:01:43.275Z,100.00
2023-05-07T05:02:40.084Z,100.00
2023-05-07T05:03:37.080Z,100.00
2023-05-07T05:04:33.858Z,100.00
2023-05-07T05:05:30.609Z,100.00
2023-05-07T05:06:27.396Z,100.00
2023-05-07T05:07:24.199Z,100.00
2023-05-07T05:08:21.042Z,100.00
2023-05-07T05:09:17.886Z,100.00
2023-05-07T05:10:14.872Z,100.00
2023-05-07T05:11:11.704Z,100.00
2023-05-07T05:12:08.604Z,100.00
2023-05-07T05:13:05.404Z,100.00
2023-05-07T05:14:03.049Z,100.00
2023-05-07T05:14:59.803Z,100.00
2023-05-07T05:15:57.030Z,100.00
2023-05-07T05:16:54.044Z,100.00
2023-05-07T05:18:09.069Z,100.00
2023-05-07T05:19:06.155Z,100.00
2023-05-07T05:20:03.453Z,100.00
2023-05-07T05:21:00.282Z,100.00
2023-05-07T05:21:57.119Z,100.00
2023-05-07T05:22:53.964Z,100.00
2023-05-07T05:23:51.219Z,100.00
2023-05-07T05:24:48.009Z,100.00
2023-05-07T05:25:44.795Z,100.00
2023-05-07T05:26:41.627Z,100.00
2023-05-07T05:27:38.400Z,100.00
2023-05-07T05:28:35.403Z,100.00
2023-05-07T05:29:32.800Z,100.00
2023-05-07T05:30:29.525Z,100.00
2023-05-07T05:31:26.460Z,100.00
2023-05-07T05:32:23.468Z,100.00
2023-05-07T05:33:20.547Z,100.00
2023-05-07T05:34:18.345Z,100.00
2023-05-07T05:35:15.170Z,100.00
2023-05-07T05:36:13.112Z,100.00
2023-05-07T05:37:09.928Z,100.00
2023-05-07T05:38:06.770Z,100.00
2023-05-07T05:39:03.534Z,100.00
2023-05-07T05:40:00.325Z,100.00
2023-05-07T05:40:57.072Z,100.00
2023-05-07T05:41:53.787Z,100.00
2023-05-07T05:43:09.223Z,100.00
2023-05-07T05:44:05.950Z,100.00
2023-05-07T05:45:02.821Z,100.00
2023-05-07T05:46:00.082Z,100.00
2023-05-07T05:46:58.690Z,100.00
2023-05-07T05:47:57.706Z,100.00
2023-05-07T05:48:54.498Z,100.00
2023-05-07T05:49:51.376Z,100.00
2023-05-07T05:50:48.121Z,100.00
2023-05-07T05:51:44.885Z,100.00
2023-05-07T05:52:41.890Z,100.00
2023-05-07T05:53:38.659Z,100.00
2023-05-07T05:54:35.356Z,100.00
2023-05-07T05:55:33.502Z,100.00
2023-05-07T05:56:30.361Z,100.00
2023-05-07T05:57:28.783Z,100.00
2023-05-07T05:58:25.992Z,100.00
2023-05-07T05:59:22.942Z,100.00
2023-05-07T06:00:20.041Z,100.00
2023-05-07T06:01:18.164Z,100.00
2023-05-07T06:02:14.987Z,100.00
2023-05-07T06:03:12.011Z,100.00
2023-05-07T06:04:08.835Z,100.00
2023-05-07T06:05:06.179Z,100.00
2023-05-07T06:06:03.284Z,100.00
2023-05-07T06:07:00.048Z,100.00
2023-05-07T06:07:57.204Z,100.00
2023-05-07T06:08:54.073Z,100.00
2023-05-07T06:09:50.976Z,100.00
2023-05-07T06:10:47.919Z,100.00
2023-05-07T06:11:47.324Z,100.00
2023-05-07T06:12:44.537Z,100.00
2023-05-07T06:13:41.380Z,100.00
2023-05-07T06:14:38.206Z,100.00
2023-05-07T06:15:35.014Z,100.00
2023-05-07T06:16:31.832Z,100.00
2023-05-07T06:17:28.744Z,100.00
2023-05-07T06:18:26.089Z,100.00
2023-05-07T06:19:24.974Z,100.00
2023-05-07T06:20:21.747Z,100.00
2023-05-07T06:21:18.568Z,100.00
2023-05-07T06:22:15.376Z,100.00
2023-05-07T06:23:12.122Z,100.00
2023-05-07T06:24:09.123Z,100.00
2023-05-07T06:25:06.422Z,100.00
2023-05-07T06:26:03.383Z,100.00
2023-05-07T06:27:00.176Z,100.00
2023-05-07T06:27:56.970Z,100.00
2023-05-07T06:28:53.794Z,100.00
2023-05-07T06:29:50.918Z,100.00
2023-05-07T06:30:47.644Z,100.00
2023-05-07T06:31:44.413Z,100.00
2023-05-07T06:32:42.055Z,100.00
2023-05-07T06:33:38.959Z,100.00
2023-05-07T06:34:35.883Z,100.00
2023-05-07T06:35:32.706Z,100.00
2023-05-07T06:36:29.686Z,100.00
2023-05-07T06:37:26.938Z,100.00
2023-05-07T06:38:23.683Z,100.00
2023-05-07T06:39:20.527Z,100.00
2023-05-07T06:40:17.779Z,100.00
2023-05-07T06:41:14.507Z,100.00
2023-05-07T06:42:11.402Z,100.00
2023-05-07T06:43:08.165Z,100.00
2023-05-07T06:44:05.130Z,100.00
2023-05-07T06:45:02.071Z,100.00
2023-05-07T06:45:58.959Z,100.00
2023-05-07T06:46:55.725Z,100.00
2023-05-07T06:47:52.489Z,100.00
2023-05-07T06:48:49.304Z,100.00
2023-05-07T06:49:46.400Z,100.00
2023-05-07T06:50:43.255Z,100.00
2023-05-07T06:51:40.337Z,100.00
2023-05-07T06:52:37.462Z,100.00
2023-05-07T06:53:34.204Z,100.00
2023-05-07T06:54:31.066Z,100.00
2023-05-07T06:55:27.908Z,100.00
2023-05-07T06:56:24.860Z,100.00
2023-05-07T06:57:21.551Z,100.00
2023-05-07T06:58:18.286Z,100.00
2023-05-07T06:59:15.339Z,100.00
2023-05-07T07:00:12.799Z,100.00
2023-05-07T07:01:09.813Z,100.00
2023-05-07T07:02:07.149Z,100.00
2023-05-07T07:03:04.043Z,100.00
2023-05-07T07:04:01.617Z,100.00
2023-05-07T07:04:58.508Z,100.00
2023-05-07T07:05:56.141Z,100.00
2023-05-07T07:06:54.775Z,100.00
2023-05-07T07:07:53.808Z,100.00
2023-05-07T07:08:50.675Z,100.00
2023-05-07T07:09:47.458Z,100.00
2023-05-07T07:10:46.854Z,100.00
2023-05-07T07:11:43.599Z,100.00
2023-05-07T07:12:40.684Z,100.00
2023-05-07T07:13:37.846Z,100.00
2023-05-07T07:14:34.681Z,100.00
2023-05-07T07:15:31.470Z,100.00
2023-05-07T07:16:28.290Z,100.00
2023-05-07T07:17:25.113Z,100.00
2023-05-07T07:18:21.878Z,100.00
2023-05-07T07:19:18.771Z,100.00
2023-05-07T07:20:15.836Z,100.00
2023-05-07T07:21:12.975Z,100.00
2023-05-07T07:22:09.739Z,100.00
2023-05-07T07:23:06.625Z,100.00
2023-05-07T07:24:03.757Z,100.00
2023-05-07T07:25:00.618Z,100.00
2023-05-07T07:25:57.600Z,100.00
2023-05-07T07:26:56.428Z,100.00
2023-05-07T07:27:53.187Z,100.00
2023-05-07T07:28:49.986Z,100.00
2023-05-07T07:29:46.807Z,100.00
2023-05-07T07:30:43.596Z,100.00
2023-05-07T07:31:40.410Z,100.00
2023-05-07T07:32:37.385Z,100.00
2023-05-07T07:33:34.113Z,100.00
2023-05-07T07:34:31.222Z,100.00
2023-05-07T07:35:28.034Z,100.00
2023-05-07T07:36:29.502Z,100.00
2023-05-07T07:37:35.821Z,100.00
2023-05-07T07:38:32.554Z,100.00
2023-05-07T07:39:29.344Z,100.00
2023-05-07T07:40:26.889Z,100.00
2023-05-07T07:41:23.688Z,100.00
2023-05-07T07:42:20.617Z,100.00
2023-05-07T07:43:17.401Z,100.00
2023-05-07T07:44:15.982Z,100.00
2023-05-07T07:45:13.763Z,100.00
2023-05-07T07:46:10.627Z,100.00
2023-05-07T07:47:07.471Z,100.00
2023-05-07T07:48:04.379Z,100.00
2023-05-07T07:49:01.125Z,100.00
2023-05-07T07:49:58.005Z,100.00
2023-05-07T07:50:54.829Z,100.00
2023-05-07T07:51:52.199Z,100.00
2023-05-07T07:52:50.408Z,100.00
2023-05-07T07:53:47.192Z,100.00
2023-05-07T07:54:44.085Z,100.00
2023-05-07T07:55:41.461Z,100.00
2023-05-07T07:56:38.498Z,100.00
2023-05-07T07:57:35.511Z,100.00
2023-05-07T07:58:32.736Z,100.00
2023-05-07T07:59:29.559Z,100.00
2023-05-07T08:00:26.464Z,100.00
2023-05-07T08:01:23.193Z,100.00
2023-05-07T08:02:20.131Z,100.00
2023-05-07T08:03:17.828Z,100.00
2023-05-07T08:04:14.836Z,100.00
2023-05-07T08:05:11.983Z,100.00
2023-05-07T08:06:09.003Z,100.00
2023-05-07T08:07:05.741Z,100.00
2023-05-07T08:08:02.565Z,100.00
2023-05-07T08:08:59.295Z,100.00
2023-05-07T08:09:56.115Z,100.00
2023-05-07T08:10:52.947Z,100.00
2023-05-07T08:11:49.824Z,100.00
2023-05-07T08:12:46.689Z,100.00
2023-05-07T08:13:44.094Z,100.00
2023-05-07T08:14:40.951Z,100.00
2023-05-07T08:15:37.957Z,100.00
2023-05-07T08:16:34.860Z,100.00
2023-05-07T08:17:31.766Z,100.00
2023-05-07T08:18:30.079Z,100.00
2023-05-07T08:19:26.924Z,100.00
2023-05-07T08:20:23.754Z,100.00
2023-05-07T08:21:21.260Z,100.00
2023-05-07T08:22:19.540Z,100.00
2023-05-07T08:23:16.452Z,100.00
2023-05-07T08:24:13.312Z,100.00
2023-05-07T08:25:10.396Z,100.00
2023-05-07T08:26:09.062Z,100.00
2023-05-07T08:27:05.854Z,100.00
2023-05-07T08:28:02.788Z,100.00
2023-05-07T08:28:59.569Z,100.00
2023-05-07T08:29:56.284Z,100.00
2023-05-07T08:30:53.219Z,100.00
2023-05-07T08:31:50.044Z,100.00
2023-05-07T08:32:46.780Z,100.00
2023-05-07T08:33:43.657Z,100.00
2023-05-07T08:34:40.492Z,100.00
2023-05-07T08:35:37.416Z,100.00
2023-05-07T08:36:34.388Z,100.00
2023-05-07T08:37:31.424Z,100.00
2023-05-07T08:38:28.162Z,100.00
2023-05-07T08:39:24.973Z,100.00
2023-05-07T08:40:27.469Z,100.00
2023-05-07T08:41:24.521Z,100.00
2023-05-07T08:42:24.894Z,100.00
2023-05-07T08:43:23.349Z,100.00
2023-05-07T08:44:24.060Z,100.00
2023-05-07T08:45:22.147Z,100.00
2023-05-07T08:46:21.935Z,100.00
2023-05-07T08:47:22.074Z,100.00
2023-05-07T08:48:26.253Z,100.00
2023-05-07T08:49:23.152Z,100.00
2023-05-07T08:50:21.548Z,100.00
2023-05-07T08:51:21.159Z,100.00
2023-05-07T08:52:18.239Z,100.00
2023-05-07T08:53:17.914Z,100.00
2023-05-07T08:54:17.721Z,100.00
2023-05-07T08:55:15.265Z,100.00
2023-05-07T08:56:13.244Z,100.00
2023-05-07T08:57:10.110Z,100.00
2023-05-07T08:58:06.998Z,100.00
2023-05-07T08:59:04.806Z,100.00
2023-05-07T09:00:01.982Z,100.00
2023-05-07T09:01:02.694Z,100.00
2023-05-07T09:01:59.615Z,100.00
2023-05-07T09:02:56.975Z,100.00
2023-05-07T09:03:54.529Z,100.00
2023-05-07T09:04:52.074Z,100.00
2023-05-07T09:05:49.010Z,100.00
2023-05-07T09:06:45.939Z,100.00
2023-05-07T09:07:42.701Z,100.00
2023-05-07T09:08:39.457Z,100.00
2023-05-07T09:09:36.199Z,100.00
2023-05-07T09:10:34.709Z,100.00
2023-05-07T09:11:31.549Z,100.00
2023-05-07T09:12:28.472Z,100.00
2023-05-07T09:13:25.975Z,100.00
2023-05-07T09:14:22.976Z,100.00
2023-05-07T09:15:20.181Z,100.00
2023-05-07T09:16:17.146Z,100.00
2023-05-07T09:17:16.257Z,100.00
2023-05-07T09:18:16.659Z,100.00
2023-05-07T09:19:13.642Z,100.00
2023-05-07T09:20:11.202Z,100.00
2023-05-07T09:21:11.205Z,100.00
2023-05-07T09:22:08.525Z,100.00
2023-05-07T09:23:05.772Z,100.00
2023-05-07T09:24:02.616Z,100.00
2023-05-07T09:24:59.447Z,100.00
2023-05-07T09:26:01.432Z,100.00
2023-05-07T09:27:03.239Z,100.00
2023-05-07T09:28:01.607Z,100.00
2023-05-07T09:28:58.522Z,100.00
2023-05-07T09:29:55.458Z,100.00
2023-05-07T09:30:52.274Z,100.00
2023-05-07T09:31:49.102Z,100.00
2023-05-07T09:32:45.954Z,100.00
2023-05-07T09:33:42.806Z,100.00
2023-05-07T09:34:39.613Z,100.00
2023-05-07T09:35:36.387Z,100.00
2023-05-07T09:36:34.043Z,100.00
2023-05-07T09:37:33.407Z,100.00
2023-05-07T09:38:30.268Z,100.00
2023-05-07T09:39:27.100Z,100.00
2023-05-07T09:40:29.086Z,100.00
2023-05-07T09:41:26.060Z,100.00
2023-05-07T09:42:27.634Z,100.00
2023-05-07T09:43:24.531Z,100.00
2023-05-07T09:44:22.942Z,100.00
2023-05-07T09:45:38.126Z,100.00
2023-05-07T09:46:39.404Z,100.00
2023-05-07T09:47:40.706Z,100.00
2023-05-07T09:48:42.916Z,100.00
2023-05-07T09:49:43.401Z,100.00
2023-05-07T09:50:53.038Z,100.00
2023-05-07T09:51:51.756Z,100.00
2023-05-07T09:52:49.817Z,100.00
2023-05-07T09:53:47.365Z,100.00
2023-05-07T09:54:45.164Z,100.00
2023-05-07T09:55:42.589Z,100.00
2023-05-07T09:56:43.006Z,100.00
2023-05-07T09:57:40.740Z,100.00
2023-05-07T09:58:40.679Z,100.00
2023-05-07T09:59:39.523Z,100.00
2023-05-07T10:00:38.290Z,100.00
2023-05-07T10:01:38.121Z,100.00
2023-05-07T10:02:38.086Z,100.00
2023-05-07T10:03:37.578Z,100.00
2023-05-07T10:04:35.531Z,100.00
2023-05-07T10:05:33.842Z,99.85
2023-05-07T10:06:32.192Z,99.78
2023-05-07T10:07:30.030Z,100.00
2023-05-07T10:08:26.892Z,100.00
2023-05-07T10:09:24.113Z,100.00
2023-05-07T10:10:21.383Z,99.64
2023-05-07T10:11:18.908Z,97.98
2023-05-07T10:12:16.768Z,99.38
2023-05-07T10:13:14.093Z,99.16
2023-05-07T10:14:11.827Z,97.47
2023-05-07T10:15:13.219Z,95.52
2023-05-07T10:16:10.623Z,94.63
2023-05-07T10:17:08.903Z,93.84
2023-05-07T10:18:07.646Z,92.94
2023-05-07T10:19:06.101Z,94.84
2023-05-07T10:20:04.499Z,90.83
2023-05-07T10:21:09.123Z,89.84
2023-05-07T10:22:10.161Z,89.62
2023-05-07T10:23:11.187Z,82.67
2023-05-07T10:24:27.310Z,82.46
2023-05-07T10:25:30.067Z,82.64
2023-05-07T10:26:31.007Z,80.93
2023-05-07T10:27:28.395Z,82.54
2023-05-07T10:28:29.116Z,83.44
2023-05-07T10:29:48.739Z,83.03
2023-05-07T10:31:02.093Z,84.20
2023-05-07T10:32:34.373Z,91.22
2023-05-07T10:33:35.114Z,84.19
2023-05-07T10:34:38.726Z,86.27
2023-05-07T10:35:45.533Z,89.37
2023-05-07T10:36:43.406Z,91.91
2023-05-07T10:37:41.842Z,89.54
2023-05-07T10:38:39.334Z,88.80
2023-05-07T10:39:36.370Z,88.42
2023-05-07T10:40:34.056Z,83.30
2023-05-07T10:41:31.295Z,83.02
2023-05-07T10:42:28.222Z,81.80
2023-05-07T10:43:25.106Z,79.74
2023-05-07T10:44:29.730Z,79.64
2023-05-07T10:45:27.172Z,77.14
2023-05-07T10:46:24.161Z,76.62
2023-05-07T10:47:21.161Z,74.76
2023-05-07T10:48:28.935Z,75.22
2023-05-07T10:49:27.324Z,73.85
2023-05-07T10:50:24.660Z,74.14
2023-05-07T10:51:23.338Z,73.74
2023-05-07T10:52:24.435Z,73.50
2023-05-07T10:53:25.276Z,72.75
2023-05-07T10:54:23.703Z,70.43
2023-05-07T10:55:22.695Z,70.89
2023-05-07T10:56:19.831Z,71.13
2023-05-07T10:57:38.491Z,69.50
2023-05-07T10:58:37.972Z,70.24
2023-05-07T10:59:41.808Z,68.90
2023-05-07T11:00:39.596Z,70.16
2023-05-07T11:01:55.176Z,72.51
2023-05-07T11:03:03.864Z,71.71
2023-05-07T11:04:18.431Z,69.35
2023-05-07T11:05:22.855Z,71.22
2023-05-07T11:06:19.897Z,70.77
2023-05-07T11:07:26.361Z,70.46
2023-05-07T11:08:23.228Z,70.02
2023-05-07T11:09:20.181Z,69.50
2023-05-07T11:10:17.124Z,69.40
2023-05-07T11:11:13.978Z,69.39
2023-05-07T11:12:10.761Z,67.86
2023-05-07T11:13:07.605Z,67.72
2023-05-07T11:14:04.451Z,70.36
2023-05-07T11:15:01.504Z,71.71
2023-05-07T11:15:59.871Z,70.49
2023-05-07T11:17:04.737Z,70.73
2023-05-07T11:18:01.610Z,70.89
2023-05-07T11:18:58.516Z,69.71
2023-05-07T11:19:56.980Z,68.90
2023-05-07T11:20:59.703Z,70.01
2023-05-07T11:21:56.591Z,70.35
2023-05-07T11:22:56.097Z,71.26
2023-05-07T11:23:57.430Z,71.33
2023-05-07T11:24:54.446Z,71.48
2023-05-07T11:25:51.849Z,68.92
2023-05-07T11:26:50.552Z,69.60
2023-05-07T11:27:48.147Z,68.34
2023-05-07T11:28:45.089Z,68.56
2023-05-07T11:29:48.479Z,68.08
2023-05-07T11:30:45.728Z,68.88
2023-05-07T11:31:43.559Z,68.18
2023-05-07T11:32:40.940Z,65.59
2023-05-07T11:33:39.347Z,66.17
2023-05-07T11:34:37.112Z,65.92
2023-05-07T11:35:37.165Z,64.73
2023-05-07T11:36:34.817Z,64.72
2023-05-07T11:37:31.636Z,65.58
2023-05-07T11:38:30.734Z,66.13
2023-05-07T11:39:33.958Z,66.21
2023-05-07T11:40:49.217Z,63.55
2023-05-07T11:41:45.977Z,64.46
2023-05-07T11:42:45.588Z,62.12
2023-05-07T11:43:57.124Z,61.88
2023-05-07T11:44:53.908Z,61.77
2023-05-07T11:45:51.448Z,63.17
2023-05-07T11:46:48.376Z,63.92
2023-05-07T11:47:45.230Z,63.67
2023-05-07T11:48:42.658Z,63.09
2023-05-07T11:49:39.480Z,63.78
2023-05-07T11:50:36.298Z,62.97
2023-05-07T11:51:33.266Z,61.95
2023-05-07T11:52:30.066Z,62.59
2023-05-07T11:53:28.785Z,61.56
2023-05-07T11:54:26.267Z,60.83
2023-05-07T11:55:25.848Z,58.58
2023-05-07T11:56:22.582Z,58.37
2023-05-07T11:57:20.972Z,59.49
2023-05-07T11:58:24.061Z,60.53
2023-05-07T11:59:20.834Z,61.62
2023-05-07T12:00:17.974Z,62.36
2023-05-07T12:01:16.692Z,61.47
2023-05-07T12:02:15.793Z,58.97
2023-05-07T12:03:12.636Z,58.03
2023-05-07T12:04:09.650Z,56.08
2023-05-07T12:05:06.955Z,56.92
2023-05-07T12:06:06.338Z,57.80
2023-05-07T12:07:03.108Z,57.12
2023-05-07T12:07:59.881Z,55.31